createdAt,value
2023-07-07T00:00:48.832Z,11.28
2023-07-07T00:02:50.523Z,11.31
2023-07-07T00:04:52.494Z,11.31
2023-07-07T00:06:54.138Z,11.26
2023-07-07T00:08:56.855Z,11.25
2023-07-07T00:11:00.073Z,11.19
2023-07-07T00:13:02.082Z,11.26
2023-07-07T00:15:04.068Z,11.26
2023-07-07T00:17:06.725Z,11.12
2023-07-07T00:19:10.629Z,11.13
2023-07-07T00:21:12.703Z,11.08
2023-07-07T00:23:14.276Z,11.03
2023-07-07T00:25:15.975Z,10.99
2023-07-07T00:27:17.661Z,11.02
2023-07-07T00:29:19.222Z,11.02
2023-07-07T00:31:21.895Z,11.01
2023-07-07T00:33:24.213Z,10.86
2023-07-07T00:35:25.735Z,10.79
2023-07-07T00:37:27.269Z,10.83
2023-07-07T00:39:30.553Z,10.87
2023-07-07T00:41:32.527Z,10.92
2023-07-07T00:43:36.376Z,10.86
2023-07-07T00:45:37.906Z,10.88
2023-07-07T00:47:48.154Z,10.79
2023-07-07T00:49:49.794Z,10.79
2023-07-07T00:52:02.200Z,10.67
2023-07-07T00:54:08.664Z,10.81
2023-07-07T00:56:17.884Z,10.73
2023-07-07T00:58:22.046Z,10.71
2023-07-07T01:00:23.633Z,10.68
2023-07-07T01:02:27.284Z,10.73
2023-07-07T01:04:31.150Z,10.80
2023-07-07T01:06:39.576Z,10.77
2023-07-07T01:08:44.698Z,10.71
2023-07-07T01:10:46.565Z,10.59
2023-07-07T01:12:51.144Z,10.49
2023-07-07T01:14:53.094Z,10.53
2023-07-07T01:17:31.610Z,10.61
2023-07-07T01:19:58.274Z,10.57
2023-07-07T01:22:22.669Z,10.49
2023-07-07T01:24:39.961Z,10.61
2023-07-07T01:27:07.211Z,10.58
2023-07-07T01:29:48.723Z,10.60
2023-07-07T01:31:58.813Z,10.49
2023-07-07T01:34:03.480Z,10.47
2023-07-07T01:36:05.211Z,10.32
2023-07-07T01:38:07.805Z,10.35
2023-07-07T01:40:11.162Z,10.37
2023-07-07T01:42:28.779Z,10.43
2023-07-07T01:44:39.544Z,10.45
2023-07-07T01:47:00.440Z,10.33
2023-07-07T01:49:10.171Z,10.38
2023-07-07T01:51:14.860Z,10.34
2023-07-07T01:53:22.363Z,10.26
2023-07-07T01:55:27.577Z,10.21
2023-07-07T01:57:30.377Z,10.18
2023-07-07T01:59:32.856Z,10.26
2023-07-07T02:01:35.464Z,10.23
2023-07-07T02:03:37.184Z,10.11
2023-07-07T02:05:39.379Z,10.17
2023-07-07T02:07:43.805Z,10.12
2023-07-07T02:09:45.324Z,10.20
2023-07-07T02:11:47.078Z,10.09
2023-07-07T02:13:48.881Z,10.08
2023-07-07T02:15:52.129Z,10.11
2023-07-07T02:17:53.860Z,10.24
2023-07-07T02:19:58.339Z,10.30
2023-07-07T02:21:59.882Z,10.34
2023-07-07T02:24:03.332Z,10.24
2023-07-07T02:26:04.905Z,10.31
2023-07-07T02:28:07.389Z,10.18
2023-07-07T02:30:09.424Z,10.23
2023-07-07T02:32:11.030Z,10.16
2023-07-07T02:34:12.613Z,10.14
2023-07-07T02:36:14.205Z,10.19
2023-07-07T02:38:16.362Z,10.15
2023-07-07T02:40:17.942Z,10.16
2023-07-07T02:42:20.047Z,10.16
2023-07-07T02:44:21.797Z,10.07
2023-07-07T02:46:23.549Z,10.08
2023-07-07T02:48:25.108Z,9.94
2023-07-07T02:50:27.359Z,9.91
2023-07-07T02:52:29.681Z,10.06
2023-07-07T02:54:31.377Z,10.14
2023-07-07T02:56:33.826Z,9.98
2023-07-07T02:58:35.335Z,9.92
2023-07-07T03:00:37.006Z,9.98
2023-07-07T03:02:38.547Z,9.97
2023-07-07T03:04:40.140Z,10.01
2023-07-07T03:06:42.425Z,9.97
2023-07-07T03:08:44.690Z,9.89
2023-07-07T03:10:46.743Z,9.76
2023-07-07T03:12:48.308Z,9.75
2023-07-07T03:14:53.899Z,9.74
2023-07-07T03:16:59.773Z,9.74
2023-07-07T03:19:09.343Z,9.75
2023-07-07T03:21:25.220Z,9.77
2023-07-07T03:23:34.127Z,9.84
2023-07-07T03:25:37.437Z,9.86
2023-07-07T03:27:39.506Z,9.91
2023-07-07T03:29:45.853Z,9.82
2023-07-07T03:31:50.617Z,9.77
2023-07-07T03:33:56.556Z,9.89
2023-07-07T03:35:58.592Z,9.83
2023-07-07T03:38:00.126Z,9.80
2023-07-07T03:40:02.134Z,9.85
2023-07-07T03:42:05.613Z,9.76
2023-07-07T03:44:07.741Z,9.76
2023-07-07T03:46:16.385Z,9.77
2023-07-07T03:48:18.659Z,9.91
2023-07-07T03:50:20.179Z,9.79
2023-07-07T03:52:21.784Z,9.77
2023-07-07T03:54:23.348Z,9.79
2023-07-07T03:56:27.637Z,9.80
2023-07-07T03:58:30.239Z,9.86
2023-07-07T04:00:31.870Z,9.89
2023-07-07T04:02:33.729Z,9.95
2023-07-07T04:04:36.260Z,10.02
2023-07-07T04:06:38.560Z,10.11
2023-07-07T04:08:40.185Z,10.15
2023-07-07T04:10:41.868Z,10.15
2023-07-07T04:12:44.171Z,10.19
2023-07-07T04:14:45.777Z,10.30
2023-07-07T04:16:47.502Z,10.47
2023-07-07T04:18:51.377Z,10.58
2023-07-07T04:20:53.044Z,10.67
2023-07-07T04:22:54.670Z,10.72
2023-07-07T04:25:14.824Z,10.79
2023-07-07T04:27:16.418Z,10.95
2023-07-07T04:29:18.043Z,10.94
2023-07-07T04:31:27.435Z,11.06
2023-07-07T04:33:29.389Z,11.16
2023-07-07T04:35:30.940Z,11.24
2023-07-07T04:37:33.090Z,11.30
2023-07-07T04:39:34.986Z,11.43
2023-07-07T04:41:36.878Z,11.51
2023-07-07T04:43:41.378Z,11.62
2023-07-07T04:45:45.138Z,11.74
2023-07-07T04:47:46.702Z,11.85
2023-07-07T04:49:48.316Z,11.97
2023-07-07T04:51:49.853Z,12.06
2023-07-07T04:53:51.893Z,12.18
2023-07-07T04:55:53.427Z,12.34
2023-07-07T04:57:55.126Z,12.52
2023-07-07T04:59:56.661Z,12.66
2023-07-07T05:01:58.526Z,12.81
2023-07-07T05:04:02.705Z,12.99
2023-07-07T05:06:05.908Z,13.11
2023-07-07T05:08:09.631Z,13.27
2023-07-07T05:10:12.055Z,13.44
2023-07-07T05:12:14.504Z,13.58
2023-07-07T05:14:16.102Z,13.73
2023-07-07T05:16:20.466Z,13.87
2023-07-07T05:18:22.207Z,14.03
2023-07-07T05:20:23.745Z,14.16
2023-07-07T05:22:25.328Z,14.26
2023-07-07T05:24:27.100Z,14.34
2023-07-07T05:26:29.006Z,14.46
2023-07-07T05:28:31.232Z,14.66
2023-07-07T05:30:33.205Z,14.77
2023-07-07T05:32:34.808Z,14.96
2023-07-07T05:34:36.384Z,15.13
2023-07-07T05:36:38.431Z,15.32
2023-07-07T05:38:42.012Z,15.48
2023-07-07T05:40:44.674Z,15.59
2023-07-07T05:42:46.220Z,15.75
2023-07-07T05:44:47.775Z,15.93
2023-07-07T05:46:49.393Z,16.04
2023-07-07T05:48:51.065Z,16.20
2023-07-07T05:50:56.102Z,16.40
2023-07-07T05:52:57.921Z,16.62
2023-07-07T05:54:59.470Z,17.03
2023-07-07T05:57:03.002Z,17.47
2023-07-07T05:59:04.598Z,17.84
2023-07-07T06:01:06.227Z,18.21
2023-07-07T06:03:08.200Z,18.51
2023-07-07T06:05:09.764Z,18.80
2023-07-07T06:07:11.458Z,19.00
2023-07-07T06:09:13.086Z,19.23
2023-07-07T06:11:14.669Z,19.41
2023-07-07T06:13:19.010Z,19.61
2023-07-07T06:15:20.722Z,19.77
2023-07-07T06:17:22.497Z,19.92
2023-07-07T06:19:24.318Z,20.07
2023-07-07T06:21:25.922Z,20.19
2023-07-07T06:23:31.178Z,20.22
2023-07-07T06:25:32.708Z,20.31
2023-07-07T06:27:34.324Z,20.38
2023-07-07T06:29:36.756Z,20.40
2023-07-07T06:31:38.430Z,20.54
2023-07-07T06:33:40.686Z,20.48
2023-07-07T06:35:44.494Z,20.55
2023-07-07T06:37:46.008Z,20.75
2023-07-07T06:39:47.582Z,20.87
2023-07-07T06:41:49.085Z,20.78
2023-07-07T06:43:51.100Z,20.86
2023-07-07T06:45:54.858Z,20.94
2023-07-07T06:47:56.428Z,21.02
2023-07-07T06:49:58.269Z,21.14
2023-07-07T06:52:00.006Z,21.25
2023-07-07T06:54:01.636Z,21.25
2023-07-07T06:56:03.256Z,21.52
2023-07-07T06:58:05.438Z,21.62
2023-07-07T07:00:07.626Z,21.66
2023-07-07T07:02:14.301Z,21.65
2023-07-07T07:04:15.974Z,21.60
2023-07-07T07:06:17.917Z,21.77
2023-07-07T07:08:19.922Z,21.86
2023-07-07T07:10:21.578Z,21.98
2023-07-07T07:12:23.280Z,22.06
2023-07-07T07:14:24.850Z,22.25
2023-07-07T07:16:26.432Z,22.34
2023-07-07T07:18:28.197Z,22.43
2023-07-07T07:20:30.278Z,22.32
2023-07-07T07:22:31.835Z,22.44
2023-07-07T07:24:33.595Z,22.42
2023-07-07T07:26:35.751Z,22.54
2023-07-07T07:28:38.208Z,22.73
2023-07-07T07:30:40.541Z,22.75
2023-07-07T07:32:42.424Z,22.83
2023-07-07T07:34:43.984Z,22.90
2023-07-07T07:36:45.597Z,23.06
2023-07-07T07:38:47.309Z,23.26
2023-07-07T07:40:52.581Z,23.47
2023-07-07T07:42:54.104Z,23.36
2023-07-07T07:44:56.111Z,23.52
2023-07-07T07:46:58.823Z,23.67
2023-07-07T07:49:00.361Z,23.87
2023-07-07T07:51:01.984Z,24.08
2023-07-07T07:53:03.659Z,24.21
2023-07-07T07:55:05.618Z,24.31
2023-07-07T07:57:08.024Z,24.50
2023-07-07T07:59:09.634Z,24.40
2023-07-07T08:01:11.550Z,24.54
2023-07-07T08:03:13.670Z,24.57
2023-07-07T08:05:16.021Z,24.72
2023-07-07T08:07:17.758Z,24.96
2023-07-07T08:09:19.636Z,24.70
2023-07-07T08:11:43.425Z,24.66
2023-07-07T08:13:45.717Z,24.75
2023-07-07T08:15:47.371Z,24.69
2023-07-07T08:17:49.211Z,24.50
2023-07-07T08:19:50.881Z,24.30
2023-07-07T08:21:52.685Z,23.92
2023-07-07T08:23:54.275Z,24.15
2023-07-07T08:30:06.477Z,25.11
2023-07-07T08:32:12.895Z,25.30
2023-07-07T08:34:14.444Z,25.45
2023-07-07T08:36:16.176Z,25.61
2023-07-07T08:38:17.686Z,25.44
2023-07-07T08:40:23.332Z,25.02
2023-07-07T08:42:35.355Z,25.11
2023-07-07T08:44:37.010Z,25.32
2023-07-07T08:46:44.665Z,25.25
2023-07-07T08:49:02.274Z,24.82
2023-07-07T08:51:08.373Z,24.64
2023-07-07T08:53:28.229Z,24.89
2023-07-07T08:55:40.172Z,24.95
2023-07-07T08:57:56.677Z,25.17
2023-07-07T09:00:07.079Z,25.39
2023-07-07T09:02:23.039Z,25.17
2023-07-07T09:04:48.212Z,24.91
2023-07-07T09:07:19.914Z,24.91
2023-07-07T09:09:30.335Z,25.22
2023-07-07T09:12:04.999Z,25.60
2023-07-07T09:14:09.705Z,26.01
2023-07-07T09:16:25.503Z,26.15
2023-07-07T09:18:33.032Z,26.51
2023-07-07T09:20:37.091Z,25.73
2023-07-07T09:22:50.948Z,25.31
2023-07-07T09:25:01.180Z,25.13
2023-07-07T09:27:14.562Z,25.58
2023-07-07T09:29:26.680Z,26.00
2023-07-07T09:31:44.192Z,26.44
2023-07-07T09:33:46.119Z,26.70
2023-07-07T09:35:53.737Z,26.67
2023-07-07T09:38:31.565Z,26.97
2023-07-07T09:40:32.964Z,26.94
2023-07-07T09:42:39.783Z,26.57
2023-07-07T09:45:05.270Z,26.65
2023-07-07T09:47:47.544Z,27.04
2023-07-07T09:49:56.123Z,26.90
2023-07-07T09:52:10.486Z,26.65
2023-07-07T09:54:17.143Z,27.15
2023-07-07T09:56:26.570Z,27.49
2023-07-07T09:58:38.742Z,27.31
2023-07-07T10:00:45.870Z,27.42
2023-07-07T10:02:47.939Z,27.54
2023-07-07T10:04:57.131Z,27.60
2023-07-07T10:07:04.450Z,27.56
2023-07-07T10:09:12.559Z,27.57
2023-07-07T10:13:33.979Z,27.49
2023-07-07T10:16:01.656Z,27.76
2023-07-07T10:18:14.555Z,28.10
2023-07-07T10:20:16.353Z,28.49
2023-07-07T10:22:17.840Z,28.92
2023-07-07T10:24:20.287Z,29.09
2023-07-07T10:26:21.912Z,28.79
2023-07-07T10:28:25.557Z,28.45
2023-07-07T10:30:27.283Z,28.46
2023-07-07T10:32:29.763Z,28.45
2023-07-07T10:34:38.790Z,28.82
2023-07-07T10:36:43.297Z,29.09
2023-07-07T10:38:55.924Z,29.28
2023-07-07T10:41:00.121Z,29.67
2023-07-07T10:43:04.102Z,29.82
2023-07-07T10:45:06.535Z,29.76
2023-07-07T10:47:22.647Z,29.58
2023-07-07T10:49:26.163Z,29.81
2023-07-07T10:51:57.711Z,29.86
2023-07-07T10:53:59.332Z,29.58
2023-07-07T10:56:04.971Z,29.83
2023-07-07T10:58:14.880Z,30.19
2023-07-07T11:01:10.198Z,29.74
2023-07-07T11:03:43.613Z,29.50
2023-07-07T11:06:04.541Z,29.46
2023-07-07T11:08:27.966Z,29.95
2023-07-07T11:10:50.961Z,30.16
2023-07-07T11:13:07.059Z,29.62
2023-07-07T11:15:26.863Z,28.71
2023-07-07T11:18:13.019Z,28.99
2023-07-07T11:20:32.458Z,29.61
2023-07-07T11:22:51.452Z,30.08
2023-07-07T11:25:05.569Z,30.34
2023-07-07T11:27:30.352Z,30.35
2023-07-07T11:29:59.191Z,29.80
2023-07-07T11:32:14.119Z,29.46
2023-07-07T11:34:44.840Z,29.57
2023-07-07T11:37:04.859Z,30.33
2023-07-07T11:39:29.893Z,30.83
2023-07-07T11:41:56.777Z,31.46
2023-07-07T11:44:09.241Z,30.71
2023-07-07T11:46:46.535Z,30.72
2023-07-07T11:49:01.753Z,30.93
2023-07-07T11:51:16.948Z,31.10
2023-07-07T11:53:48.660Z,31.27
2023-07-07T11:56:27.608Z,31.33
2023-07-07T11:58:53.277Z,30.86
2023-07-07T12:01:14.337Z,31.36
2023-07-07T12:03:42.932Z,31.10
2023-07-07T12:05:47.993Z,31.24
2023-07-07T12:08:00.007Z,31.66
2023-07-07T12:10:35.817Z,31.14
2023-07-07T12:12:46.285Z,31.71
2023-07-07T12:14:55.602Z,31.61
2023-07-07T12:16:59.992Z,32.29
2023-07-07T12:19:46.054Z,32.81
2023-07-07T12:21:51.751Z,32.74
2023-07-07T12:24:08.785Z,31.55
2023-07-07T12:26:21.987Z,31.33
2023-07-07T12:28:23.824Z,31.77
2023-07-07T12:30:27.106Z,32.13
2023-07-07T12:32:28.932Z,32.27
2023-07-07T12:34:42.164Z,32.48
2023-07-07T12:36:43.757Z,33.16
2023-07-07T12:38:52.447Z,33.61
2023-07-07T12:41:03.097Z,33.45
2023-07-07T12:43:21.506Z,33.96
2023-07-07T12:45:33.138Z,33.61
2023-07-07T12:47:38.625Z,33.56
2023-07-07T12:49:44.575Z,34.01
2023-07-07T12:51:46.538Z,34.23
2023-07-07T12:53:53.043Z,33.78
2023-07-07T12:56:08.355Z,31.58
2023-07-07T12:58:32.738Z,31.74
2023-07-07T13:00:39.906Z,32.50
2023-07-07T13:03:01.384Z,32.37
2023-07-07T13:05:21.845Z,32.45
2023-07-07T13:07:32.782Z,32.84
2023-07-07T13:09:46.625Z,32.63
2023-07-07T13:11:57.246Z,31.15
2023-07-07T13:13:58.984Z,31.46
2023-07-07T13:16:01.482Z,32.20
2023-07-07T13:18:03.668Z,32.07
2023-07-07T13:20:06.336Z,32.84
2023-07-07T13:22:21.982Z,32.56
2023-07-07T13:24:32.097Z,33.01
2023-07-07T13:26:34.614Z,33.56
2023-07-07T13:28:36.570Z,33.34
2023-07-07T13:30:42.504Z,33.23
2023-07-07T13:32:44.160Z,33.64
2023-07-07T13:34:46.298Z,34.25
2023-07-07T13:36:48.360Z,34.24
2023-07-07T13:38:51.025Z,33.16
2023-07-07T13:40:53.627Z,33.54
2023-07-07T13:42:55.291Z,33.51
2023-07-07T13:44:59.614Z,32.94
2023-07-07T13:47:07.275Z,33.57
2023-07-07T13:49:14.964Z,34.21
2023-07-07T13:51:25.780Z,34.89
2023-07-07T13:53:27.645Z,35.42
2023-07-07T13:55:36.493Z,35.87
2023-07-07T13:57:38.818Z,35.90
2023-07-07T13:59:40.535Z,36.11
2023-07-07T14:01:44.902Z,36.39
2023-07-07T14:03:49.005Z,35.05
2023-07-07T14:05:54.247Z,34.99
2023-07-07T14:07:56.058Z,34.66
2023-07-07T14:09:57.800Z,34.67
2023-07-07T14:12:02.389Z,35.20
2023-07-07T14:14:04.065Z,35.84
2023-07-07T14:16:18.607Z,36.28
2023-07-07T14:18:27.344Z,36.91
2023-07-07T14:20:40.611Z,35.79
2023-07-07T14:22:43.412Z,34.98
2023-07-07T14:24:45.083Z,34.06
2023-07-07T14:26:48.111Z,34.39
2023-07-07T14:28:52.282Z,34.82
2023-07-07T14:31:02.509Z,35.16
2023-07-07T14:33:04.248Z,35.87
2023-07-07T14:35:29.532Z,36.23
2023-07-07T14:37:39.331Z,36.34
2023-07-07T14:39:41.056Z,36.12
2023-07-07T14:41:42.696Z,35.36
2023-07-07T14:43:44.675Z,36.05
2023-07-07T14:45:46.330Z,36.57
2023-07-07T14:47:47.950Z,37.01
2023-07-07T14:49:52.132Z,37.11
2023-07-07T14:51:56.712Z,36.21
2023-07-07T14:54:00.758Z,36.68
2023-07-07T14:56:13.603Z,36.19
2023-07-07T14:58:19.041Z,36.23
2023-07-07T15:00:41.957Z,34.78
2023-07-07T15:02:43.998Z,34.61
2023-07-07T15:04:46.459Z,35.50
2023-07-07T15:06:52.197Z,35.74
2023-07-07T15:08:56.020Z,36.18
2023-07-07T15:11:01.991Z,35.48
2023-07-07T15:13:04.282Z,35.18
2023-07-07T15:15:06.912Z,35.08
2023-07-07T15:17:12.033Z,34.11
2023-07-07T15:19:21.428Z,32.90
2023-07-07T15:21:28.097Z,33.67
2023-07-07T15:23:30.957Z,34.81
2023-07-07T15:25:35.934Z,34.88
2023-07-07T15:27:37.643Z,35.20
2023-07-07T15:29:39.250Z,35.48
2023-07-07T15:31:40.827Z,35.80
2023-07-07T15:33:42.380Z,36.20
2023-07-07T15:35:44.032Z,36.28
2023-07-07T15:37:47.897Z,36.84
2023-07-07T15:39:49.460Z,35.40
2023-07-07T15:41:51.042Z,33.93
2023-07-07T15:43:53.466Z,34.73
2023-07-07T15:45:55.346Z,35.31
2023-07-07T15:47:57.014Z,34.54
2023-07-07T15:49:58.543Z,34.56
2023-07-07T15:51:59.966Z,34.51
2023-07-07T15:54:03.948Z,33.95
2023-07-07T15:56:08.593Z,33.92
2023-07-07T15:58:13.603Z,33.16
2023-07-07T16:00:26.389Z,32.90
2023-07-07T16:02:28.394Z,31.81
2023-07-07T16:04:30.135Z,31.26
2023-07-07T16:06:31.805Z,30.60
2023-07-07T16:08:33.466Z,30.76
2023-07-07T16:10:35.205Z,31.27
2023-07-07T16:12:36.734Z,31.60
2023-07-07T16:14:38.744Z,31.44
2023-07-07T16:16:40.707Z,31.00
2023-07-07T16:18:43.325Z,30.97
2023-07-07T16:20:46.970Z,31.04
2023-07-07T16:22:50.756Z,31.01
2023-07-07T16:24:52.412Z,30.95
2023-07-07T16:26:54.026Z,31.05
2023-07-07T16:28:57.498Z,31.12
2023-07-07T16:30:59.429Z,30.72
2023-07-07T16:33:01.619Z,30.90
2023-07-07T16:35:03.169Z,30.58
2023-07-07T16:37:10.208Z,30.38
2023-07-07T16:39:14.594Z,30.08
2023-07-07T16:41:24.701Z,29.95
2023-07-07T16:43:26.291Z,29.66
2023-07-07T16:45:27.964Z,29.26
2023-07-07T16:47:29.564Z,29.07
2023-07-07T16:49:31.093Z,29.36
2023-07-07T16:51:33.298Z,29.05
2023-07-07T16:53:34.856Z,29.17
2023-07-07T16:55:36.821Z,29.34
2023-07-07T16:57:38.752Z,29.32
2023-07-07T16:59:40.337Z,29.20
2023-07-07T17:01:42.820Z,29.30
2023-07-07T17:03:44.948Z,29.44
2023-07-07T17:05:46.575Z,29.31
2023-07-07T17:07:48.928Z,28.94
2023-07-07T17:09:50.561Z,28.80
2023-07-07T17:11:53.407Z,28.84
2023-07-07T17:13:56.016Z,28.91
2023-07-07T17:15:57.760Z,28.77
2023-07-07T17:18:00.714Z,28.75
2023-07-07T17:20:34.160Z,28.67
2023-07-07T17:22:35.739Z,28.54
2023-07-07T17:24:37.243Z,28.57
2023-07-07T17:26:41.245Z,28.61
2023-07-07T17:28:42.945Z,28.47
2023-07-07T17:30:44.525Z,28.44
2023-07-07T17:32:46.480Z,28.40
2023-07-07T17:34:48.125Z,28.41
2023-07-07T17:36:50.573Z,28.42
2023-07-07T17:38:52.949Z,28.37
2023-07-07T17:40:54.509Z,28.43
2023-07-07T17:42:56.067Z,28.30
2023-07-07T17:44:57.649Z,28.29
2023-07-07T17:46:59.513Z,28.15
2023-07-07T17:49:06.677Z,28.16
2023-07-07T17:51:09.682Z,27.94
2023-07-07T17:53:11.336Z,27.84
2023-07-07T17:55:14.744Z,27.58
2023-07-07T17:57:16.452Z,27.70
2023-07-07T17:59:19.911Z,27.76
2023-07-07T18:01:22.041Z,27.92
2023-07-07T18:03:23.838Z,27.85
2023-07-07T18:05:26.318Z,27.72
2023-07-07T18:07:27.866Z,27.70
2023-07-07T18:09:29.467Z,27.59
2023-07-07T18:11:32.490Z,27.64
2023-07-07T18:13:34.238Z,27.69
2023-07-07T18:15:36.081Z,27.77
2023-07-07T18:17:51.779Z,27.68
2023-07-07T18:20:29.079Z,27.64
2023-07-07T18:22:23.800Z,27.73
2023-07-07T18:24:25.471Z,27.66
2023-07-07T18:26:39.593Z,27.48
2023-07-07T18:28:44.617Z,27.48
2023-07-07T18:30:56.668Z,27.54
2023-07-07T18:32:58.988Z,27.42
2023-07-07T18:37:10.485Z,26.85
2023-07-07T18:39:22.469Z,26.58
2023-07-07T18:41:24.262Z,26.33
2023-07-07T18:43:26.821Z,26.41
2023-07-07T18:45:28.545Z,26.43
2023-07-07T18:47:30.277Z,26.34
2023-07-07T18:49:32.494Z,26.18
2023-07-07T18:51:33.980Z,26.00
2023-07-07T18:53:35.478Z,25.82
2023-07-07T18:55:37.144Z,25.57
2023-07-07T18:57:38.680Z,25.32
2023-07-07T18:59:40.288Z,25.14
2023-07-07T19:01:42.040Z,24.90
2023-07-07T19:03:43.959Z,24.72
2023-07-07T19:05:46.208Z,24.59
2023-07-07T19:07:47.759Z,24.34
2023-07-07T19:09:50.707Z,24.30
2023-07-07T19:11:55.457Z,24.15
2023-07-07T19:13:57.076Z,23.90
2023-07-07T19:15:58.871Z,23.74
2023-07-07T19:18:05.703Z,23.52
2023-07-07T19:20:14.555Z,23.40
2023-07-07T19:22:18.188Z,23.15
2023-07-07T19:24:20.034Z,23.12
2023-07-07T19:26:22.666Z,22.97
2023-07-07T19:28:30.162Z,22.82
2023-07-07T19:30:35.461Z,22.73
2023-07-07T19:32:38.418Z,22.53
2023-07-07T19:34:40.072Z,22.48
2023-07-07T19:36:43.789Z,22.33
2023-07-07T19:38:52.497Z,22.23
2023-07-07T19:41:02.461Z,22.13
2023-07-07T19:43:04.189Z,22.05
2023-07-07T19:45:06.261Z,21.98
2023-07-07T19:47:16.462Z,21.90
2023-07-07T19:49:20.415Z,21.90
2023-07-07T19:51:23.498Z,21.80
2023-07-07T19:53:25.330Z,21.69
2023-07-07T19:55:26.838Z,21.65
2023-07-07T19:57:28.462Z,21.50
2023-07-07T19:59:29.976Z,21.34
2023-07-07T20:01:34.274Z,21.34
2023-07-07T20:03:36.328Z,21.31
2023-07-07T20:05:39.148Z,21.24
2023-07-07T20:07:40.773Z,21.13
2023-07-07T20:09:42.422Z,21.05
2023-07-07T20:11:44.356Z,21.06
2023-07-07T20:13:46.908Z,20.90
2023-07-07T20:15:48.602Z,20.92
2023-07-07T20:17:50.334Z,20.73
2023-07-07T20:19:52.602Z,20.87
2023-07-07T20:21:54.283Z,20.82
2023-07-07T20:23:56.665Z,20.93
2023-07-07T20:25:58.694Z,20.80
2023-07-07T20:28:00.481Z,20.75
2023-07-07T20:30:02.389Z,20.76
2023-07-07T20:32:14.518Z,20.75
2023-07-07T20:34:17.394Z,20.71
2023-07-07T20:36:21.768Z,20.74
2023-07-07T20:38:25.696Z,20.68
2023-07-07T20:40:32.086Z,20.45
2023-07-07T20:42:33.961Z,19.93
2023-07-07T20:44:36.003Z,19.47
2023-07-07T20:46:44.007Z,19.37
2023-07-07T20:48:46.451Z,19.14
2023-07-07T20:50:54.587Z,18.99
2023-07-07T20:52:56.226Z,18.69
2023-07-07T20:54:57.983Z,18.56
2023-07-07T20:57:10.504Z,18.52
2023-07-07T20:59:27.240Z,18.40
2023-07-07T21:01:29.621Z,18.38
2023-07-07T21:03:31.291Z,18.36
2023-07-07T21:05:33.096Z,18.30
2023-07-07T21:07:34.951Z,18.27
2023-07-07T21:09:36.600Z,18.22
2023-07-07T21:11:38.259Z,18.15
2023-07-07T21:13:39.977Z,18.03
2023-07-07T21:15:41.773Z,17.91
2023-07-07T21:17:45.110Z,17.90
2023-07-07T21:19:46.852Z,17.90
2023-07-07T21:21:48.714Z,17.81
2023-07-07T21:23:53.021Z,17.74
2023-07-07T21:25:56.772Z,17.57
2023-07-07T21:27:58.821Z,17.52
2023-07-07T21:30:00.508Z,17.50
2023-07-07T21:32:02.440Z,17.47
2023-07-07T21:34:04.136Z,17.46
2023-07-07T21:36:28.905Z,17.40
2023-07-07T21:38:30.482Z,17.27
2023-07-07T21:40:32.090Z,17.31
2023-07-07T21:42:33.677Z,17.20
2023-07-07T21:44:35.210Z,17.14
2023-07-07T21:46:39.488Z,17.18
2023-07-07T21:48:41.552Z,17.10
2023-07-07T21:50:43.183Z,17.05
2023-07-07T21:52:45.806Z,17.05
2023-07-07T21:54:47.547Z,16.97
2023-07-07T21:56:49.645Z,17.02
2023-07-07T21:58:52.125Z,17.06
2023-07-07T22:00:54.083Z,16.95
2023-07-07T22:03:01.042Z,16.89
2023-07-07T22:05:02.718Z,16.82
2023-07-07T22:07:04.824Z,16.90
2023-07-07T22:09:13.994Z,16.89
2023-07-07T22:11:17.286Z,16.90
2023-07-07T22:13:19.911Z,16.93
2023-07-07T22:15:21.487Z,16.94
2023-07-07T22:17:23.117Z,16.97
2023-07-07T22:19:24.625Z,16.98
2023-07-07T22:21:26.174Z,16.97
2023-07-07T22:23:28.155Z,17.04
2023-07-07T22:25:31.320Z,17.04
2023-07-07T22:27:32.897Z,17.13
2023-07-07T22:29:34.434Z,17.10
2023-07-07T22:31:35.957Z,17.09
2023-07-07T22:33:37.551Z,17.11
2023-07-07T22:35:39.247Z,17.11
2023-07-07T22:37:44.505Z,17.04
2023-07-07T22:39:46.058Z,16.97
2023-07-07T22:41:47.615Z,16.94
2023-07-07T22:43:49.542Z,16.98
2023-07-07T22:45:57.492Z,16.94
2023-07-07T22:47:59.039Z,16.95
2023-07-07T22:50:00.907Z,16.96
2023-07-07T22:52:02.424Z,16.92
2023-07-07T22:54:04.642Z,16.97
2023-07-07T22:56:15.066Z,16.94
2023-07-07T22:58:22.078Z,16.96
2023-07-07T23:00:30.799Z,16.97
2023-07-07T23:02:33.401Z,16.99
2023-07-07T23:04:34.918Z,17.00
2023-07-07T23:06:36.907Z,16.94
2023-07-07T23:08:38.520Z,16.94
2023-07-07T23:10:40.193Z,16.99
2023-07-07T23:12:42.675Z,17.09
2023-07-07T23:14:45.981Z,17.04
2023-07-07T23:16:47.613Z,17.06
2023-07-07T23:18:49.263Z,16.97
2023-07-07T23:20:50.823Z,16.95
2023-07-07T23:22:54.099Z,17.02
2023-07-07T23:25:00.842Z,17.06
2023-07-07T23:27:02.748Z,17.02
2023-07-07T23:29:06.037Z,17.07
2023-07-07T23:31:10.075Z,16.98
2023-07-07T23:33:14.167Z,16.96
2023-07-07T23:35:15.845Z,16.96
2023-07-07T23:37:24.702Z,16.88
2023-07-07T23:39:26.352Z,16.86
2023-07-07T23:41:29.006Z,16.78
2023-07-07T23:43:30.554Z,16.72
2023-07-07T23:45:33.619Z,16.73
2023-07-07T23:47:35.469Z,16.74
2023-07-07T23:49:37.188Z,16.70
2023-07-07T23:51:38.855Z,16.60
2023-07-07T23:53:42.073Z,16.53
2023-07-07T23:55:44.131Z,16.50
2023-07-07T23:57:47.083Z,16.44
2023-07-07T23:59:48.813Z,16.41
